Indian Mills, New Jersey
Current Conditions -  °F | °C
As of 1:54 PM on Saturday 25 Oct 2014 (Local Time) from KVAY Reporting Station
Clear Clear  
Wind Chill: 19°   Ceiling: Unl
Heat Index: 19°   Visibility: 10mi
Dew Point:   Wind: 10mph
Humidity: 42%   Direction: 290°WNW
Pressure: 29.77"   Gusts: NA
Location:  39.7955°N, 74.6301°W
Report Text: KVAY 251754Z AUTO 29009KT 10SM CLR 19/06 A2977 RMK AO2 SLP080 T01940061 10194 20039 58040
Loading
Personal Weather Stations






























Interactive Weather Map
Tropical Storm Tracking
New forecast layout! Learn more

10-Day Weather Forecast

Advertisements
Track Severe Weather on mobile